Date,TemperatureHighF,TemperatureAvgF,TemperatureLowF,DewpointHighF,DewpointAvgF,DewpointLowF,HumidityHigh,HumidityAvg,HumidityLow,PressureMaxIn,PressureMinIn,WindSpeedMaxMPH,WindSpeedAvgMPH,GustSpeedMaxMPH,PrecipitationSumIn
2013-8-1,67.8,60.2,49.8,58.9,53.1,44.2,94,78,61,29.77,29.69,7,0,8,0.04
2013-8-2,61.6,56.9,54.1,58.5,55.6,53.0,97,95,89,29.93,29.75,9,1,9,0.47
2013-8-3,75.0,61.4,54.4,61.4,56.8,52.5,98,86,52,29.97,29.87,6,0,6,0.02
2013-8-4,82.8,72.3,49.1,62.9,56.7,48.3,99,61,34,29.91,29.76,9,1,9,0.00
2013-8-5,86.1,68.0,51.1,61.7,54.8,50.0,97,68,31,29.80,29.67,9,1,10,0.00
2013-8-6,89.0,74.9,53.2,63.7,54.2,45.8,94,54,24,29.80,29.66,10,1,10,0.00
2013-8-7,89.8,74.5,48.9,58.2,49.6,37.2,96,47,19,29.75,29.65,17,1,17,0.00
2013-8-8,89.5,67.6,48.8,63.1,51.3,40.5,88,61,20,29.77,29.66,7,0,7,0.00
2013-8-9,91.0,73.4,53.6,63.7,56.5,49.0,87,59,32,29.70,29.58,11,1,11,0.00
2013-8-10,89.3,74.2,59.1,63.0,56.3,46.5,93,58,27,29.74,29.62,16,1,16,0.02
2013-8-11,85.8,72.8,57.1,62.3,57.7,47.8,94,61,39,29.77,29.67,10,1,10,0.03
2013-8-12,88.8,75.4,52.7,60.8,55.7,49.8,95,54,30,29.80,29.70,8,1,8,0.00
2013-8-13,88.2,70.6,52.0,61.4,52.2,45.3,95,58,25,29.86,29.75,8,1,8,0.00
2013-8-14,92.3,71.2,50.5,62.2,54.0,47.4,93,60,25,29.78,29.62,12,0,12,0.00
2013-8-15,90.2,69.7,50.7,58.7,51.5,46.2,90,58,25,29.75,29.66,8,1,9,0.00
2013-8-16,87.0,67.7,52.0,57.8,51.6,46.6,92,61,29,29.80,29.72,11,1,11,0.00
2013-8-17,85.9,61.5,49.7,60.2,52.4,46.8,96,75,33,29.84,29.73,13,1,15,0.00
2013-8-18,84.4,70.7,46.0,54.7,49.4,43.0,96,51,24,29.89,29.78,15,2,15,0.00
2013-8-19,84.7,65.2,45.2,53.5,47.7,42.1,94,59,28,29.85,29.74,14,2,14,0.00
2013-8-20,82.5,61.2,43.7,49.4,41.4,29.9,93,57,17,29.88,29.77,11,1,11,0.00
2013-8-21,85.8,63.1,41.6,52.4,42.1,35.1,85,53,19,29.93,29.80,11,1,11,0.00
2013-8-22,91.2,73.2,45.1,58.4,46.9,38.1,83,43,17,29.81,29.60,8,1,8,0.00
2013-8-23,83.3,69.3,56.3,59.1,53.5,46.8,87,59,37,29.65,29.57,13,1,13,0.00
2013-8-24,81.6,62.5,47.1,56.3,48.3,44.5,95,65,33,29.70,29.58,2,1,10,0.01
2013-8-25,81.4,64.8,53.7,61.3,54.1,47.9,96,72,38,29.75,29.59,4,0,33,0.43
2013-8-26,77.3,62.1,50.3,58.4,53.0,48.7,98,76,38,29.81,29.73,2,1,10,0.00
2013-8-27,82.3,63.0,45.1,57.8,50.2,44.3,97,69,33,29.84,29.65,2,0,10,0.00
2013-8-28,84.5,64.4,49.4,58.6,51.6,47.5,95,68,32,29.73,29.60,2,1,11,0.00
2013-8-29,83.5,69.2,48.8,56.8,52.8,47.2,94,58,35,29.86,29.70,15,1,15,0.00
2013-8-30,80.9,67.5,46.2,59.0,50.0,41.0,94,58,30,29.95,29.85,12,2,14,0.02
2013-8-31,54.6,45.1,39.8,52.4,43.4,38.0,97,94,82,29.95,29.90,4,0,4,0.00